sensor_id;sensor_type;location;lat;lon;timestamp;temperature;humidity
62912;DHT22;49111;51.028;4.218;2022-08-01T00:01:41;21.80;97.70
62912;DHT22;49111;51.028;4.218;2022-08-01T00:04:07;21.80;97.70
62912;DHT22;49111;51.028;4.218;2022-08-01T00:06:32;21.80;97.60
62912;DHT22;49111;51.028;4.218;2022-08-01T00:08:58;21.80;97.80
62912;DHT22;49111;51.028;4.218;2022-08-01T00:11:24;21.70;97.90
62912;DHT22;49111;51.028;4.218;2022-08-01T00:13:50;21.70;98.00
62912;DHT22;49111;51.028;4.218;2022-08-01T00:16:16;21.80;97.90
62912;DHT22;49111;51.028;4.218;2022-08-01T00:18:41;21.70;97.90
62912;DHT22;49111;51.028;4.218;2022-08-01T00:21:07;21.80;97.80
62912;DHT22;49111;51.028;4.218;2022-08-01T00:23:33;21.80;98.00
62912;DHT22;49111;51.028;4.218;2022-08-01T00:25:59;21.80;97.70
62912;DHT22;49111;51.028;4.218;2022-08-01T00:28:24;22.00;97.70
62912;DHT22;49111;51.028;4.218;2022-08-01T00:30:50;21.90;97.70
62912;DHT22;49111;51.028;4.218;2022-08-01T00:33:16;21.70;98.00
62912;DHT22;49111;51.028;4.218;2022-08-01T00:35:42;21.80;97.90
62912;DHT22;49111;51.028;4.218;2022-08-01T00:38:07;21.70;98.00
62912;DHT22;49111;51.028;4.218;2022-08-01T00:40:33;21.70;98.10
62912;DHT22;49111;51.028;4.218;2022-08-01T00:42:59;21.80;98.10
62912;DHT22;49111;51.028;4.218;2022-08-01T00:45:25;21.80;98.00
62912;DHT22;49111;51.028;4.218;2022-08-01T00:47:51;21.70;98.20
62912;DHT22;49111;51.028;4.218;2022-08-01T00:50:17;21.80;98.30
62912;DHT22;49111;51.028;4.218;2022-08-01T00:52:43;21.80;98.30
62912;DHT22;49111;51.028;4.218;2022-08-01T00:55:10;21.80;98.20
62912;DHT22;49111;51.028;4.218;2022-08-01T00:57:38;21.70;98.30
62912;DHT22;49111;51.028;4.218;2022-08-01T01:00:05;21.80;98.30
62912;DHT22;49111;51.028;4.218;2022-08-01T01:02:32;21.70;98.40
62912;DHT22;49111;51.028;4.218;2022-08-01T01:04:58;21.60;98.60
62912;DHT22;49111;51.028;4.218;2022-08-01T01:07:47;21.60;98.80
62912;DHT22;49111;51.028;4.218;2022-08-01T01:13:01;21.60;98.80
62912;DHT22;49111;51.028;4.218;2022-08-01T01:18:17;21.50;99.30
62912;DHT22;49111;51.028;4.218;2022-08-01T01:20:49;21.40;99.80
62912;DHT22;49111;51.028;4.218;2022-08-01T01:26:31;21.20;99.90
62912;DHT22;49111;51.028;4.218;2022-08-01T01:32:13;21.20;99.90
62912;DHT22;49111;51.028;4.218;2022-08-01T01:34:42;21.30;99.90
62912;DHT22;49111;51.028;4.218;2022-08-01T01:37:12;21.40;99.90
62912;DHT22;49111;51.028;4.218;2022-08-01T01:39:41;21.40;99.90
62912;DHT22;49111;51.028;4.218;2022-08-01T01:42:08;21.30;99.90
62912;DHT22;49111;51.028;4.218;2022-08-01T01:44:37;21.40;99.90
62912;DHT22;49111;51.028;4.218;2022-08-01T01:47:05;21.40;99.90
62912;DHT22;49111;51.028;4.218;2022-08-01T01:49:32;21.20;99.90
62912;DHT22;49111;51.028;4.218;2022-08-01T01:52:00;21.10;99.90
62912;DHT22;49111;51.028;4.218;2022-08-01T01:54:33;21.20;99.90
62912;DHT22;49111;51.028;4.218;2022-08-01T01:57:02;21.30;99.90
62912;DHT22;49111;51.028;4.218;2022-08-01T01:59:32;21.30;99.90
62912;DHT22;49111;51.028;4.218;2022-08-01T02:02:03;21.40;99.90
62912;DHT22;49111;51.028;4.218;2022-08-01T02:04:30;21.40;99.90
62912;DHT22;49111;51.028;4.218;2022-08-01T02:06:59;21.40;99.90
62912;DHT22;49111;51.028;4.218;2022-08-01T02:09:27;21.50;99.90
62912;DHT22;49111;51.028;4.218;2022-08-01T02:11:55;21.40;99.90
62912;DHT22;49111;51.028;4.218;2022-08-01T02:14:22;21.30;99.90
62912;DHT22;49111;51.028;4.218;2022-08-01T02:16:49;21.20;99.90
62912;DHT22;49111;51.028;4.218;2022-08-01T02:19:19;21.10;99.90
62912;DHT22;49111;51.028;4.218;2022-08-01T02:22:00;21.20;99.90
62912;DHT22;49111;51.028;4.218;2022-08-01T02:24:47;21.10;99.90
62912;DHT22;49111;51.028;4.218;2022-08-01T02:27:21;21.10;99.90
62912;DHT22;49111;51.028;4.218;2022-08-01T02:30:05;21.10;99.90
62912;DHT22;49111;51.028;4.218;2022-08-01T02:35:06;21.10;99.90
62912;DHT22;49111;51.028;4.218;2022-08-01T02:37:34;21.10;99.90
62912;DHT22;49111;51.028;4.218;2022-08-01T02:40:02;21.10;99.90
62912;DHT22;49111;51.028;4.218;2022-08-01T02:42:29;21.10;99.90
62912;DHT22;49111;51.028;4.218;2022-08-01T02:44:57;21.10;99.90
62912;DHT22;49111;51.028;4.218;2022-08-01T02:47:25;21.00;99.90
62912;DHT22;49111;51.028;4.218;2022-08-01T02:49:52;21.00;99.90
62912;DHT22;49111;51.028;4.218;2022-08-01T02:52:20;20.80;99.90
62912;DHT22;49111;51.028;4.218;2022-08-01T02:54:49;20.80;99.90
62912;DHT22;49111;51.028;4.218;2022-08-01T02:57:16;20.70;99.90
62912;DHT22;49111;51.028;4.218;2022-08-01T02:59:44;20.60;99.90
62912;DHT22;49111;51.028;4.218;2022-08-01T03:02:11;20.50;99.90
62912;DHT22;49111;51.028;4.218;2022-08-01T03:04:39;20.40;99.90
62912;DHT22;49111;51.028;4.218;2022-08-01T03:07:09;20.20;99.90
62912;DHT22;49111;51.028;4.218;2022-08-01T03:09:38;20.00;99.90
62912;DHT22;49111;51.028;4.218;2022-08-01T03:12:10;20.00;99.90
62912;DHT22;49111;51.028;4.218;2022-08-01T03:14:39;20.20;99.90
62912;DHT22;49111;51.028;4.218;2022-08-01T03:17:08;20.20;99.90
62912;DHT22;49111;51.028;4.218;2022-08-01T03:19:35;20.20;99.90
62912;DHT22;49111;51.028;4.218;2022-08-01T03:22:09;20.20;99.90
62912;DHT22;49111;51.028;4.218;2022-08-01T03:24:41;20.30;99.90
62912;DHT22;49111;51.028;4.218;2022-08-01T03:27:08;20.40;99.90
62912;DHT22;49111;51.028;4.218;2022-08-01T03:29:34;20.40;99.90
62912;DHT22;49111;51.028;4.218;2022-08-01T03:32:02;20.40;99.90
62912;DHT22;49111;51.028;4.218;2022-08-01T03:34:29;20.50;99.90
62912;DHT22;49111;51.028;4.218;2022-08-01T03:37:02;20.50;99.90
62912;DHT22;49111;51.028;4.218;2022-08-01T03:39:34;20.50;99.90
62912;DHT22;49111;51.028;4.218;2022-08-01T03:42:10;20.60;99.90
62912;DHT22;49111;51.028;4.218;2022-08-01T03:44:38;20.60;99.90
62912;DHT22;49111;51.028;4.218;2022-08-01T03:47:08;20.60;99.90
62912;DHT22;49111;51.028;4.218;2022-08-01T03:49:44;20.60;99.90
62912;DHT22;49111;51.028;4.218;2022-08-01T03:52:11;20.60;99.90
62912;DHT22;49111;51.028;4.218;2022-08-01T03:54:41;20.70;99.90
62912;DHT22;49111;51.028;4.218;2022-08-01T03:57:10;20.80;99.90
62912;DHT22;49111;51.028;4.218;2022-08-01T03:59:37;20.70;99.90
62912;DHT22;49111;51.028;4.218;2022-08-01T04:02:07;20.80;99.90
62912;DHT22;49111;51.028;4.218;2022-08-01T04:04:33;20.80;99.90
62912;DHT22;49111;51.028;4.218;2022-08-01T04:07:02;20.80;99.90
62912;DHT22;49111;51.028;4.218;2022-08-01T04:09:33;20.90;99.90
62912;DHT22;49111;51.028;4.218;2022-08-01T04:12:00;20.90;99.90
62912;DHT22;49111;51.028;4.218;2022-08-01T04:14:27;20.90;99.90
62912;DHT22;49111;51.028;4.218;2022-08-01T04:16:54;21.00;99.90
62912;DHT22;49111;51.028;4.218;2022-08-01T04:19:19;21.00;99.90
62912;DHT22;49111;51.028;4.218;2022-08-01T04:21:48;21.00;99.90
62912;DHT22;49111;51.028;4.218;2022-08-01T04:24:18;21.00;99.90
62912;DHT22;49111;51.028;4.218;2022-08-01T04:26:47;21.00;99.90
62912;DHT22;49111;51.028;4.218;2022-08-01T04:29:16;21.10;99.90
62912;DHT22;49111;51.028;4.218;2022-08-01T04:31:45;21.10;99.90
62912;DHT22;49111;51.028;4.218;2022-08-01T04:34:15;21.00;99.90
62912;DHT22;49111;51.028;4.218;2022-08-01T04:36:46;20.90;99.90
62912;DHT22;49111;51.028;4.218;2022-08-01T04:39:19;20.90;99.90
62912;DHT22;49111;51.028;4.218;2022-08-01T04:41:46;21.00;99.90
62912;DHT22;49111;51.028;4.218;2022-08-01T04:44:14;21.00;99.90
62912;DHT22;49111;51.028;4.218;2022-08-01T04:46:41;21.10;99.90
62912;DHT22;49111;51.028;4.218;2022-08-01T04:49:07;21.10;99.90
62912;DHT22;49111;51.028;4.218;2022-08-01T04:51:34;21.20;99.90
62912;DHT22;49111;51.028;4.218;2022-08-01T04:54:00;21.20;99.90
62912;DHT22;49111;51.028;4.218;2022-08-01T04:56:27;21.20;99.90
62912;DHT22;49111;51.028;4.218;2022-08-01T04:58:52;21.10;99.90
62912;DHT22;49111;51.028;4.218;2022-08-01T05:01:38;21.20;99.90
62912;DHT22;49111;51.028;4.218;2022-08-01T05:04:04;21.20;99.90
62912;DHT22;49111;51.028;4.218;2022-08-01T05:06:30;21.20;99.90
62912;DHT22;49111;51.028;4.218;2022-08-01T05:08:56;21.30;99.90
62912;DHT22;49111;51.028;4.218;2022-08-01T05:11:22;21.30;99.90
62912;DHT22;49111;51.028;4.218;2022-08-01T05:13:48;21.20;99.90
62912;DHT22;49111;51.028;4.218;2022-08-01T05:16:14;21.20;99.90
62912;DHT22;49111;51.028;4.218;2022-08-01T05:18:40;21.30;99.90
62912;DHT22;49111;51.028;4.218;2022-08-01T05:21:05;21.30;99.90
62912;DHT22;49111;51.028;4.218;2022-08-01T05:23:31;21.20;99.90
62912;DHT22;49111;51.028;4.218;2022-08-01T05:25:57;21.20;99.90
62912;DHT22;49111;51.028;4.218;2022-08-01T05:28:23;21.20;99.90
62912;DHT22;49111;51.028;4.218;2022-08-01T05:30:49;21.20;99.90
62912;DHT22;49111;51.028;4.218;2022-08-01T05:33:15;21.10;99.90
62912;DHT22;49111;51.028;4.218;2022-08-01T05:35:41;21.20;99.90
62912;DHT22;49111;51.028;4.218;2022-08-01T05:38:06;21.30;99.90
62912;DHT22;49111;51.028;4.218;2022-08-01T05:40:32;21.40;99.90
62912;DHT22;49111;51.028;4.218;2022-08-01T05:42:58;21.40;99.90
62912;DHT22;49111;51.028;4.218;2022-08-01T05:45:24;21.30;99.90
62912;DHT22;49111;51.028;4.218;2022-08-01T05:47:50;21.30;99.90
62912;DHT22;49111;51.028;4.218;2022-08-01T05:50:15;21.30;99.90
62912;DHT22;49111;51.028;4.218;2022-08-01T05:52:41;21.30;99.90
62912;DHT22;49111;51.028;4.218;2022-08-01T05:55:08;21.40;99.90
62912;DHT22;49111;51.028;4.218;2022-08-01T05:57:34;21.40;99.90
62912;DHT22;49111;51.028;4.218;2022-08-01T06:00:00;21.40;99.90
62912;DHT22;49111;51.028;4.218;2022-08-01T06:02:26;21.40;99.90
62912;DHT22;49111;51.028;4.218;2022-08-01T06:04:53;21.50;99.90
62912;DHT22;49111;51.028;4.218;2022-08-01T06:07:19;21.40;99.90
62912;DHT22;49111;51.028;4.218;2022-08-01T06:09:44;21.30;99.90
62912;DHT22;49111;51.028;4.218;2022-08-01T06:12:10;21.20;99.90
62912;DHT22;49111;51.028;4.218;2022-08-01T06:14:36;21.20;99.90
62912;DHT22;49111;51.028;4.218;2022-08-01T06:17:02;21.20;99.90
62912;DHT22;49111;51.028;4.218;2022-08-01T06:19:27;21.40;99.90
62912;DHT22;49111;51.028;4.218;2022-08-01T06:21:53;21.50;99.90
62912;DHT22;49111;51.028;4.218;2022-08-01T06:24:19;21.60;99.90
62912;DHT22;49111;51.028;4.218;2022-08-01T06:26:45;21.60;99.90
62912;DHT22;49111;51.028;4.218;2022-08-01T06:29:10;21.70;99.90
62912;DHT22;49111;51.028;4.218;2022-08-01T06:31:36;21.70;99.90
62912;DHT22;49111;51.028;4.218;2022-08-01T06:34:02;21.80;99.90
62912;DHT22;49111;51.028;4.218;2022-08-01T06:36:28;21.70;99.90
62912;DHT22;49111;51.028;4.218;2022-08-01T06:38:53;21.70;99.90
62912;DHT22;49111;51.028;4.218;2022-08-01T06:41:19;21.90;99.90
62912;DHT22;49111;51.028;4.218;2022-08-01T06:43:45;21.90;99.90
62912;DHT22;49111;51.028;4.218;2022-08-01T06:46:11;22.00;99.80
62912;DHT22;49111;51.028;4.218;2022-08-01T06:48:37;22.00;99.60
62912;DHT22;49111;51.028;4.218;2022-08-01T06:51:05;21.90;99.80
62912;DHT22;49111;51.028;4.218;2022-08-01T06:53:35;21.90;99.60
62912;DHT22;49111;51.028;4.218;2022-08-01T06:56:02;21.80;99.80
62912;DHT22;49111;51.028;4.218;2022-08-01T06:58:28;21.90;99.50
62912;DHT22;49111;51.028;4.218;2022-08-01T07:00:54;22.00;99.20
62912;DHT22;49111;51.028;4.218;2022-08-01T07:03:19;22.00;99.30
62912;DHT22;49111;51.028;4.218;2022-08-01T07:05:45;22.00;99.10
62912;DHT22;49111;51.028;4.218;2022-08-01T07:08:11;22.00;99.30
62912;DHT22;49111;51.028;4.218;2022-08-01T07:10:37;22.00;99.00
62912;DHT22;49111;51.028;4.218;2022-08-01T07:13:02;22.10;98.80
62912;DHT22;49111;51.028;4.218;2022-08-01T07:15:28;22.10;98.80
62912;DHT22;49111;51.028;4.218;2022-08-01T07:17:54;22.00;98.60
62912;DHT22;49111;51.028;4.218;2022-08-01T07:20:20;22.00;98.60
62912;DHT22;49111;51.028;4.218;2022-08-01T07:22:46;22.10;98.00
62912;DHT22;49111;51.028;4.218;2022-08-01T07:25:12;21.90;98.60
62912;DHT22;49111;51.028;4.218;2022-08-01T07:27:38;21.80;98.80
62912;DHT22;49111;51.028;4.218;2022-08-01T07:30:05;21.70;99.10
62912;DHT22;49111;51.028;4.218;2022-08-01T07:32:31;21.80;99.00
62912;DHT22;49111;51.028;4.218;2022-08-01T07:34:57;21.70;98.30
62912;DHT22;49111;51.028;4.218;2022-08-01T07:37:23;21.70;98.40
62912;DHT22;49111;51.028;4.218;2022-08-01T07:39:49;21.70;98.30
62912;DHT22;49111;51.028;4.218;2022-08-01T07:42:15;21.70;98.50
62912;DHT22;49111;51.028;4.218;2022-08-01T07:44:41;21.70;98.50
62912;DHT22;49111;51.028;4.218;2022-08-01T07:47:07;21.90;98.30
62912;DHT22;49111;51.028;4.218;2022-08-01T07:49:33;22.20;98.00
62912;DHT22;49111;51.028;4.218;2022-08-01T07:51:59;22.30;97.50
62912;DHT22;49111;51.028;4.218;2022-08-01T07:54:28;22.30;96.90
62912;DHT22;49111;51.028;4.218;2022-08-01T07:56:55;22.30;97.00
62912;DHT22;49111;51.028;4.218;2022-08-01T07:59:21;22.40;97.30
62912;DHT22;49111;51.028;4.218;2022-08-01T08:01:49;22.40;96.60
62912;DHT22;49111;51.028;4.218;2022-08-01T08:04:17;22.60;96.30
62912;DHT22;49111;51.028;4.218;2022-08-01T08:06:42;22.70;96.40
62912;DHT22;49111;51.028;4.218;2022-08-01T08:09:10;22.60;96.00
62912;DHT22;49111;51.028;4.218;2022-08-01T08:11:36;22.70;96.20
62912;DHT22;49111;51.028;4.218;2022-08-01T08:14:02;22.70;96.60
62912;DHT22;49111;51.028;4.218;2022-08-01T08:16:28;22.70;95.70
62912;DHT22;49111;51.028;4.218;2022-08-01T08:18:53;22.80;95.20
62912;DHT22;49111;51.028;4.218;2022-08-01T08:21:19;22.80;95.60
62912;DHT22;49111;51.028;4.218;2022-08-01T08:23:45;22.70;95.80
62912;DHT22;49111;51.028;4.218;2022-08-01T08:26:30;22.80;95.50
62912;DHT22;49111;51.028;4.218;2022-08-01T08:28:56;22.80;95.20
62912;DHT22;49111;51.028;4.218;2022-08-01T08:31:21;23.00;94.40
62912;DHT22;49111;51.028;4.218;2022-08-01T08:33:47;23.10;94.50
62912;DHT22;49111;51.028;4.218;2022-08-01T08:36:14;23.20;94.30
62912;DHT22;49111;51.028;4.218;2022-08-01T08:38:40;23.40;94.10
62912;DHT22;49111;51.028;4.218;2022-08-01T08:41:06;23.50;93.50
62912;DHT22;49111;51.028;4.218;2022-08-01T08:43:32;23.60;93.50
62912;DHT22;49111;51.028;4.218;2022-08-01T08:45:59;23.50;93.60
62912;DHT22;49111;51.028;4.218;2022-08-01T08:48:26;23.60;93.60
62912;DHT22;49111;51.028;4.218;2022-08-01T08:50:52;23.70;93.40
62912;DHT22;49111;51.028;4.218;2022-08-01T08:53:18;23.60;93.80
62912;DHT22;49111;51.028;4.218;2022-08-01T08:55:47;23.70;93.80
62912;DHT22;49111;51.028;4.218;2022-08-01T08:58:15;23.60;93.50
62912;DHT22;49111;51.028;4.218;2022-08-01T09:00:44;23.50;93.30
62912;DHT22;49111;51.028;4.218;2022-08-01T09:03:12;23.60;92.90
62912;DHT22;49111;51.028;4.218;2022-08-01T09:05:38;23.60;92.90
62912;DHT22;49111;51.028;4.218;2022-08-01T09:08:07;23.60;92.30
62912;DHT22;49111;51.028;4.218;2022-08-01T09:10:33;23.60;92.10
62912;DHT22;49111;51.028;4.218;2022-08-01T09:13:13;23.70;91.90
62912;DHT22;49111;51.028;4.218;2022-08-01T09:15:47;23.90;91.60
62912;DHT22;49111;51.028;4.218;2022-08-01T09:18:28;24.10;90.90
62912;DHT22;49111;51.028;4.218;2022-08-01T09:21:10;24.20;91.70
62912;DHT22;49111;51.028;4.218;2022-08-01T09:23:50;24.30;91.20
62912;DHT22;49111;51.028;4.218;2022-08-01T09:26:18;24.40;91.80
62912;DHT22;49111;51.028;4.218;2022-08-01T09:28:46;24.30;91.90
62912;DHT22;49111;51.028;4.218;2022-08-01T09:31:14;24.20;91.70
62912;DHT22;49111;51.028;4.218;2022-08-01T09:33:59;24.20;91.80
62912;DHT22;49111;51.028;4.218;2022-08-01T09:36:49;24.20;91.70
62912;DHT22;49111;51.028;4.218;2022-08-01T09:39:20;24.40;91.00
62912;DHT22;49111;51.028;4.218;2022-08-01T09:41:48;24.60;90.40
62912;DHT22;49111;51.028;4.218;2022-08-01T09:44:15;24.90;90.10
62912;DHT22;49111;51.028;4.218;2022-08-01T09:46:51;24.80;89.80
62912;DHT22;49111;51.028;4.218;2022-08-01T09:49:28;25.00;89.60
62912;DHT22;49111;51.028;4.218;2022-08-01T09:51:54;24.80;90.20
62912;DHT22;49111;51.028;4.218;2022-08-01T09:54:33;24.70;90.30
62912;DHT22;49111;51.028;4.218;2022-08-01T09:57:16;24.50;90.60
62912;DHT22;49111;51.028;4.218;2022-08-01T09:59:49;24.30;90.50
62912;DHT22;49111;51.028;4.218;2022-08-01T10:02:29;24.30;91.00
62912;DHT22;49111;51.028;4.218;2022-08-01T10:04:55;24.60;91.10
62912;DHT22;49111;51.028;4.218;2022-08-01T10:07:21;24.80;90.00
62912;DHT22;49111;51.028;4.218;2022-08-01T10:09:48;24.90;89.30
62912;DHT22;49111;51.028;4.218;2022-08-01T10:12:17;25.00;87.60
62912;DHT22;49111;51.028;4.218;2022-08-01T10:14:49;25.30;87.00
62912;DHT22;49111;51.028;4.218;2022-08-01T10:17:17;25.40;89.00
62912;DHT22;49111;51.028;4.218;2022-08-01T10:19:44;25.10;89.60
62912;DHT22;49111;51.028;4.218;2022-08-01T10:22:12;24.90;89.50
62912;DHT22;49111;51.028;4.218;2022-08-01T10:24:45;25.00;90.00
62912;DHT22;49111;51.028;4.218;2022-08-01T10:27:14;25.20;89.80
62912;DHT22;49111;51.028;4.218;2022-08-01T10:32:18;26.00;86.00
62912;DHT22;49111;51.028;4.218;2022-08-01T10:34:45;26.10;85.40
62912;DHT22;49111;51.028;4.218;2022-08-01T10:37:12;26.20;86.90
62912;DHT22;49111;51.028;4.218;2022-08-01T10:39:39;26.10;86.40
62912;DHT22;49111;51.028;4.218;2022-08-01T10:42:06;26.30;83.80
62912;DHT22;49111;51.028;4.218;2022-08-01T10:44:34;26.40;82.60
62912;DHT22;49111;51.028;4.218;2022-08-01T10:47:06;26.60;82.40
62912;DHT22;49111;51.028;4.218;2022-08-01T10:49:36;26.60;81.60
62912;DHT22;49111;51.028;4.218;2022-08-01T10:52:03;26.70;82.80
62912;DHT22;49111;51.028;4.218;2022-08-01T10:54:38;26.50;82.10
62912;DHT22;49111;51.028;4.218;2022-08-01T10:57:04;26.50;82.40
62912;DHT22;49111;51.028;4.218;2022-08-01T10:59:32;26.70;84.70
62912;DHT22;49111;51.028;4.218;2022-08-01T11:02:02;26.80;83.40
62912;DHT22;49111;51.028;4.218;2022-08-01T11:07:12;26.80;82.20
62912;DHT22;49111;51.028;4.218;2022-08-01T11:09:44;26.80;82.60
62912;DHT22;49111;51.028;4.218;2022-08-01T11:12:12;26.80;83.10
62912;DHT22;49111;51.028;4.218;2022-08-01T11:17:39;26.90;80.30
62912;DHT22;49111;51.028;4.218;2022-08-01T11:20:13;26.80;81.20
62912;DHT22;49111;51.028;4.218;2022-08-01T11:23:15;26.70;80.40
62912;DHT22;49111;51.028;4.218;2022-08-01T11:33:08;26.80;81.80
62912;DHT22;49111;51.028;4.218;2022-08-01T11:35:35;26.90;80.50
62912;DHT22;49111;51.028;4.218;2022-08-01T11:38:22;26.90;80.80
62912;DHT22;49111;51.028;4.218;2022-08-01T11:41:12;27.00;83.10
62912;DHT22;49111;51.028;4.218;2022-08-01T11:46:50;27.10;80.10
62912;DHT22;49111;51.028;4.218;2022-08-01T11:52:26;27.50;77.50
62912;DHT22;49111;51.028;4.218;2022-08-01T11:54:57;27.80;78.90
62912;DHT22;49111;51.028;4.218;2022-08-01T11:57:30;27.80;78.10
62912;DHT22;49111;51.028;4.218;2022-08-01T12:00:00;27.70;76.30
62912;DHT22;49111;51.028;4.218;2022-08-01T12:02:30;27.70;74.60
62912;DHT22;49111;51.028;4.218;2022-08-01T12:04:59;27.60;74.90
62912;DHT22;49111;51.028;4.218;2022-08-01T12:07:27;27.50;74.40
62912;DHT22;49111;51.028;4.218;2022-08-01T12:10:01;27.50;74.90
62912;DHT22;49111;51.028;4.218;2022-08-01T12:12:29;27.30;73.00
62912;DHT22;49111;51.028;4.218;2022-08-01T12:15:00;27.50;73.80
62912;DHT22;49111;51.028;4.218;2022-08-01T12:17:46;27.70;75.00
62912;DHT22;49111;51.028;4.218;2022-08-01T12:20:20;28.00;73.70
62912;DHT22;49111;51.028;4.218;2022-08-01T12:22:46;28.00;74.40
62912;DHT22;49111;51.028;4.218;2022-08-01T12:25:14;28.10;74.60
62912;DHT22;49111;51.028;4.218;2022-08-01T12:27:42;28.10;74.40
62912;DHT22;49111;51.028;4.218;2022-08-01T12:30:11;28.30;73.80
62912;DHT22;49111;51.028;4.218;2022-08-01T12:32:38;28.40;73.30
62912;DHT22;49111;51.028;4.218;2022-08-01T12:37:39;28.30;70.80
62912;DHT22;49111;51.028;4.218;2022-08-01T12:40:20;28.30;71.40
62912;DHT22;49111;51.028;4.218;2022-08-01T12:42:57;28.40;70.30
62912;DHT22;49111;51.028;4.218;2022-08-01T12:45:41;28.40;70.80
62912;DHT22;49111;51.028;4.218;2022-08-01T12:48:14;28.50;69.40
62912;DHT22;49111;51.028;4.218;2022-08-01T12:50:43;28.60;70.10
62912;DHT22;49111;51.028;4.218;2022-08-01T12:53:09;28.80;69.60
62912;DHT22;49111;51.028;4.218;2022-08-01T12:55:50;29.00;68.70
62912;DHT22;49111;51.028;4.218;2022-08-01T12:58:17;28.80;68.70
62912;DHT22;49111;51.028;4.218;2022-08-01T13:00:45;28.80;67.60
62912;DHT22;49111;51.028;4.218;2022-08-01T13:03:18;28.90;67.80
62912;DHT22;49111;51.028;4.218;2022-08-01T13:05:48;29.10;68.40
62912;DHT22;49111;51.028;4.218;2022-08-01T13:08:28;29.20;67.90
62912;DHT22;49111;51.028;4.218;2022-08-01T13:11:09;29.20;67.10
62912;DHT22;49111;51.028;4.218;2022-08-01T13:16:05;28.90;64.50
62912;DHT22;49111;51.028;4.218;2022-08-01T13:18:33;28.80;65.20
62912;DHT22;49111;51.028;4.218;2022-08-01T13:21:19;28.90;65.60
62912;DHT22;49111;51.028;4.218;2022-08-01T13:24:04;29.10;62.80
62912;DHT22;49111;51.028;4.218;2022-08-01T13:29:09;28.90;63.80
62912;DHT22;49111;51.028;4.218;2022-08-01T13:31:36;28.80;64.00
62912;DHT22;49111;51.028;4.218;2022-08-01T13:34:03;28.80;63.10
62912;DHT22;49111;51.028;4.218;2022-08-01T13:36:29;28.90;63.40
62912;DHT22;49111;51.028;4.218;2022-08-01T13:39:00;29.00;62.00
62912;DHT22;49111;51.028;4.218;2022-08-01T13:41:46;28.90;62.80
62912;DHT22;49111;51.028;4.218;2022-08-01T13:44:12;29.00;61.20
62912;DHT22;49111;51.028;4.218;2022-08-01T13:46:39;29.10;61.10
62912;DHT22;49111;51.028;4.218;2022-08-01T13:49:06;29.10;60.10
62912;DHT22;49111;51.028;4.218;2022-08-01T13:51:33;29.20;61.90
62912;DHT22;49111;51.028;4.218;2022-08-01T13:53:59;29.00;59.80
62912;DHT22;49111;51.028;4.218;2022-08-01T13:56:25;29.00;59.00
62912;DHT22;49111;51.028;4.218;2022-08-01T13:58:53;29.10;61.00
62912;DHT22;49111;51.028;4.218;2022-08-01T14:01:20;29.00;60.10
62912;DHT22;49111;51.028;4.218;2022-08-01T14:03:46;28.70;59.40
62912;DHT22;49111;51.028;4.218;2022-08-01T14:06:12;28.70;60.40
62912;DHT22;49111;51.028;4.218;2022-08-01T14:08:39;28.60;60.70
62912;DHT22;49111;51.028;4.218;2022-08-01T14:11:05;28.50;60.30
62912;DHT22;49111;51.028;4.218;2022-08-01T14:13:31;28.40;62.60
62912;DHT22;49111;51.028;4.218;2022-08-01T14:15:59;28.50;61.10
62912;DHT22;49111;51.028;4.218;2022-08-01T14:18:25;28.60;61.80
62912;DHT22;49111;51.028;4.218;2022-08-01T14:20:51;28.70;61.20
62912;DHT22;49111;51.028;4.218;2022-08-01T14:23:17;28.90;61.90
62912;DHT22;49111;51.028;4.218;2022-08-01T14:25:43;29.00;59.50
62912;DHT22;49111;51.028;4.218;2022-08-01T14:28:09;29.00;57.90
62912;DHT22;49111;51.028;4.218;2022-08-01T14:30:36;28.90;57.80
62912;DHT22;49111;51.028;4.218;2022-08-01T14:33:02;28.80;59.20
62912;DHT22;49111;51.028;4.218;2022-08-01T14:35:28;28.60;59.40
62912;DHT22;49111;51.028;4.218;2022-08-01T14:37:54;28.70;58.70
62912;DHT22;49111;51.028;4.218;2022-08-01T14:40:20;28.80;58.30
62912;DHT22;49111;51.028;4.218;2022-08-01T14:42:45;29.10;58.90
62912;DHT22;49111;51.028;4.218;2022-08-01T14:45:12;29.20;57.50
62912;DHT22;49111;51.028;4.218;2022-08-01T14:47:39;29.10;57.60
62912;DHT22;49111;51.028;4.218;2022-08-01T14:50:08;29.10;59.00
62912;DHT22;49111;51.028;4.218;2022-08-01T14:52:35;29.20;58.10
62912;DHT22;49111;51.028;4.218;2022-08-01T14:55:02;29.30;59.50
62912;DHT22;49111;51.028;4.218;2022-08-01T14:57:28;29.50;59.20
62912;DHT22;49111;51.028;4.218;2022-08-01T14:59:54;29.50;58.20
62912;DHT22;49111;51.028;4.218;2022-08-01T15:02:20;29.50;58.40
62912;DHT22;49111;51.028;4.218;2022-08-01T15:04:47;29.50;59.20
62912;DHT22;49111;51.028;4.218;2022-08-01T15:07:14;29.60;59.40
62912;DHT22;49111;51.028;4.218;2022-08-01T15:09:40;29.60;58.90
62912;DHT22;49111;51.028;4.218;2022-08-01T15:12:07;29.40;59.10
62912;DHT22;49111;51.028;4.218;2022-08-01T15:14:32;29.20;59.60
62912;DHT22;49111;51.028;4.218;2022-08-01T15:17:17;29.00;59.40
62912;DHT22;49111;51.028;4.218;2022-08-01T15:19:43;28.80;57.70
62912;DHT22;49111;51.028;4.218;2022-08-01T15:22:09;28.70;58.40
62912;DHT22;49111;51.028;4.218;2022-08-01T15:24:35;28.90;58.10
62912;DHT22;49111;51.028;4.218;2022-08-01T15:27:01;29.00;58.10
62912;DHT22;49111;51.028;4.218;2022-08-01T15:29:27;28.80;57.20
62912;DHT22;49111;51.028;4.218;2022-08-01T15:31:53;28.70;57.00
62912;DHT22;49111;51.028;4.218;2022-08-01T15:34:21;28.80;56.80
62912;DHT22;49111;51.028;4.218;2022-08-01T15:36:47;28.80;56.10
62912;DHT22;49111;51.028;4.218;2022-08-01T15:39:13;28.80;56.80
62912;DHT22;49111;51.028;4.218;2022-08-01T15:41:40;28.90;57.50
62912;DHT22;49111;51.028;4.218;2022-08-01T15:44:06;29.10;57.30
62912;DHT22;49111;51.028;4.218;2022-08-01T15:46:32;29.10;55.30
62912;DHT22;49111;51.028;4.218;2022-08-01T15:49:02;29.10;55.20
62912;DHT22;49111;51.028;4.218;2022-08-01T15:51:29;29.10;55.70
62912;DHT22;49111;51.028;4.218;2022-08-01T15:53:54;28.90;56.30
62912;DHT22;49111;51.028;4.218;2022-08-01T15:56:21;29.00;55.70
62912;DHT22;49111;51.028;4.218;2022-08-01T15:58:46;29.10;55.70
62912;DHT22;49111;51.028;4.218;2022-08-01T16:01:12;29.00;55.90
62912;DHT22;49111;51.028;4.218;2022-08-01T16:03:38;29.00;55.70
62912;DHT22;49111;51.028;4.218;2022-08-01T16:06:04;28.80;56.20
62912;DHT22;49111;51.028;4.218;2022-08-01T16:08:30;29.00;54.80
62912;DHT22;49111;51.028;4.218;2022-08-01T16:10:56;28.90;56.10
62912;DHT22;49111;51.028;4.218;2022-08-01T16:13:21;28.60;56.00
62912;DHT22;49111;51.028;4.218;2022-08-01T16:15:47;28.60;56.90
62912;DHT22;49111;51.028;4.218;2022-08-01T16:18:13;28.60;56.60
62912;DHT22;49111;51.028;4.218;2022-08-01T16:20:41;28.60;56.80
62912;DHT22;49111;51.028;4.218;2022-08-01T16:23:07;28.70;58.00